Time;durP1;ratioP1;P1;durP2;ratioP2;P2;SDS_P1;SDS_P2;PMS_P1;PMS_P2;Temp;Humidity;BMP_temperature;BMP_pressure;BME280_temperature;BME280_humidity;BME280_pressure;Samples;Min_cycle;Max_cycle;Signal;HPM_P1;HPM_P2
2023/03/27 00:00:52;;;;;;;;;;;10.90;99.90;;;;;;5140022;27;20378;-61
2023/03/27 00:03:19;;;;;;;;;;;10.90;99.90;;;;;;5140021;27;20362;-61
2023/03/27 00:05:44;;;;;;;;;;;10.90;99.90;;;;;;5139996;27;19912;-61
2023/03/27 00:08:11;;;;;;;;;;;10.90;99.90;;;;;;5139797;27;19956;-61
2023/03/27 00:10:37;;;;;;;;;;;10.90;99.90;;;;;;5140628;27;19914;-61
2023/03/27 00:13:03;;;;;;;;;;;10.80;99.90;;;;;;5140346;27;20382;-61
2023/03/27 00:15:29;;;;;;;;;;;11.00;99.90;;;;;;5139828;27;19914;-61
2023/03/27 00:17:57;;;;;;;;;;;10.90;99.90;;;;;;5140000;27;19956;-61
2023/03/27 00:20:23;;;;;;;;;;;11.00;99.90;;;;;;5139945;27;19908;-61
2023/03/27 00:22:54;;;;;;;;;;;11.00;99.90;;;;;;5139835;27;19907;-61
2023/03/27 00:25:21;;;;;;;;;;;11.00;99.90;;;;;;5139555;27;19908;-61
2023/03/27 00:27:47;;;;;;;;;;;11.10;99.90;;;;;;5139735;27;19911;-61
2023/03/27 00:30:13;;;;;;;;;;;11.20;99.90;;;;;;5139595;27;19952;-61
2023/03/27 00:32:38;;;;;;;;;;;11.20;99.90;;;;;;5139818;27;19908;-61
2023/03/27 00:35:04;;;;;;;;;;;11.40;99.90;;;;;;5139475;27;20278;-61
2023/03/27 00:37:31;;;;;;;;;;;11.30;99.90;;;;;;5139855;27;19926;-61
2023/03/27 00:39:56;;;;;;;;;;;11.30;99.90;;;;;;5120932;27;19915;-61
2023/03/27 00:42:22;;;;;;;;;;;11.30;99.90;;;;;;5139706;27;19907;-61
2023/03/27 00:44:50;;;;;;;;;;;11.40;99.90;;;;;;5139580;27;19946;-61
2023/03/27 00:47:24;;;;;;;;;;;11.30;99.90;;;;;;5139490;27;19976;-61
2023/03/27 00:49:50;;;;;;;;;;;11.40;99.90;;;;;;5139582;27;19911;-61
2023/03/27 00:52:17;;;;;;;;;;;11.40;99.90;;;;;;5138927;27;19914;-61
2023/03/27 00:54:43;;;;;;;;;;;11.40;99.90;;;;;;5139199;27;19908;-61
2023/03/27 00:57:12;;;;;;;;;;;11.50;99.90;;;;;;5139312;27;20367;-61
2023/03/27 00:59:39;;;;;;;;;;;11.60;99.90;;;;;;5139170;27;20305;-61
2023/03/27 01:02:06;;;;;;;;;;;11.50;99.90;;;;;;5139280;27;19943;-61
2023/03/27 01:04:33;;;;;;;;;;;11.40;99.90;;;;;;5139019;27;19908;-61
2023/03/27 01:06:59;;;;;;;;;;;11.50;99.90;;;;;;5139096;27;19907;-61
2023/03/27 01:09:25;;;;;;;;;;;11.50;99.90;;;;;;5139223;27;19914;-61
2023/03/27 01:12:10;;;;;;;;;;;11.50;99.90;;;;;;5138799;27;19907;-61
2023/03/27 01:14:53;;;;;;;;;;;11.50;99.90;;;;;;5139127;27;20003;-61
2023/03/27 01:17:33;;;;;;;;;;;11.50;99.90;;;;;;5138739;27;19911;-61
2023/03/27 01:19:59;;;;;;;;;;;11.50;99.90;;;;;;5139178;28;19947;-61
2023/03/27 01:22:55;;;;;;;;;;;11.50;99.90;;;;;;5138787;28;19960;-61
2023/03/27 01:25:29;;;;;;;;;;;11.50;99.90;;;;;;5138368;28;19907;-61
2023/03/27 01:28:17;;;;;;;;;;;11.50;99.90;;;;;;5139026;28;19917;-61
2023/03/27 01:30:50;;;;;;;;;;;11.50;99.90;;;;;;5138636;28;20023;-61
2023/03/27 01:33:19;;;;;;;;;;;11.40;99.90;;;;;;5139037;28;19960;-61
2023/03/27 01:35:51;;;;;;;;;;;11.50;99.90;;;;;;5138870;28;20002;-61
2023/03/27 01:38:22;;;;;;;;;;;11.40;99.90;;;;;;5138854;28;19938;-61
2023/03/27 01:41:05;;;;;;;;;;;11.70;99.90;;;;;;5138926;28;19911;-61
2023/03/27 01:43:38;;;;;;;;;;;11.50;99.90;;;;;;5138329;28;20370;-61
2023/03/27 01:46:03;;;;;;;;;;;11.60;99.90;;;;;;5139131;28;19928;-61
2023/03/27 01:48:32;;;;;;;;;;;11.60;99.90;;;;;;5138580;28;20327;-61
2023/03/27 01:51:02;;;;;;;;;;;11.60;99.90;;;;;;5138601;28;19912;-61
2023/03/27 01:53:35;;;;;;;;;;;11.50;99.90;;;;;;5138752;28;19907;-61
2023/03/27 01:56:04;;;;;;;;;;;11.40;99.90;;;;;;5138495;28;19911;-61
2023/03/27 01:58:39;;;;;;;;;;;11.50;99.90;;;;;;5138684;28;20002;-61
2023/03/27 02:01:07;;;;;;;;;;;11.40;99.90;;;;;;5138403;28;20006;-61
2023/03/27 02:03:35;;;;;;;;;;;11.50;99.90;;;;;;5140367;27;19907;-61
2023/03/27 02:06:09;;;;;;;;;;;11.40;99.90;;;;;;5142512;27;19942;-61
2023/03/27 02:08:58;;;;;;;;;;;11.40;99.90;;;;;;5142561;27;19914;-61
2023/03/27 02:11:25;;;;;;;;;;;11.40;99.90;;;;;;5142158;27;20282;-61
2023/03/27 02:13:53;;;;;;;;;;;11.40;99.90;;;;;;5142493;27;19929;-61
2023/03/27 02:16:22;;;;;;;;;;;11.40;99.90;;;;;;5142209;27;20471;-61
2023/03/27 02:18:55;;;;;;;;;;;11.50;99.90;;;;;;5142017;27;20332;-61
2023/03/27 02:21:22;;;;;;;;;;;11.40;99.90;;;;;;5142413;27;19908;-61
2023/03/27 02:23:48;;;;;;;;;;;11.30;99.90;;;;;;5142231;27;19947;-61
2023/03/27 02:26:13;;;;;;;;;;;11.20;99.90;;;;;;5141830;27;20447;-61
2023/03/27 02:28:58;;;;;;;;;;;11.40;99.90;;;;;;5142399;27;19915;-61
2023/03/27 02:31:26;;;;;;;;;;;11.50;99.90;;;;;;5123310;27;19911;-61
2023/03/27 02:33:52;;;;;;;;;;;11.40;99.90;;;;;;5142110;27;19907;-61
2023/03/27 02:36:19;;;;;;;;;;;11.30;99.90;;;;;;5141915;27;20007;-61
2023/03/27 02:38:45;;;;;;;;;;;11.40;99.90;;;;;;5141658;27;20352;-61
2023/03/27 02:41:14;;;;;;;;;;;11.30;99.90;;;;;;5141788;27;19943;-61
2023/03/27 02:43:45;;;;;;;;;;;11.20;99.90;;;;;;5141646;27;20384;-61
2023/03/27 02:46:14;;;;;;;;;;;11.30;99.90;;;;;;5142063;27;19968;-61
2023/03/27 02:48:44;;;;;;;;;;;11.20;99.90;;;;;;5141824;27;19986;-61
2023/03/27 02:51:18;;;;;;;;;;;11.30;99.90;;;;;;5141447;27;19908;-61
2023/03/27 02:53:46;;;;;;;;;;;11.20;99.90;;;;;;5141699;27;19908;-61
2023/03/27 02:56:13;;;;;;;;;;;11.20;99.90;;;;;;5141754;27;19908;-61
2023/03/27 02:58:58;;;;;;;;;;;11.20;99.90;;;;;;5141532;27;19912;-61
2023/03/27 03:01:31;;;;;;;;;;;11.20;99.90;;;;;;5141536;27;19946;-61
2023/03/27 03:04:06;;;;;;;;;;;11.20;99.90;;;;;;5141193;27;19922;-61
2023/03/27 03:06:31;;;;;;;;;;;11.20;99.90;;;;;;5141308;27;19908;-61
2023/03/27 03:09:02;;;;;;;;;;;11.20;99.90;;;;;;5141240;27;19911;-61
2023/03/27 03:11:28;;;;;;;;;;;11.20;99.90;;;;;;5141477;27;19918;-61
2023/03/27 03:13:54;;;;;;;;;;;11.20;99.90;;;;;;5140915;27;20288;-61
2023/03/27 03:16:20;;;;;;;;;;;11.10;99.90;;;;;;5140854;27;19907;-61
2023/03/27 03:18:45;;;;;;;;;;;11.00;99.90;;;;;;5141411;27;19912;-61
2023/03/27 03:21:11;;;;;;;;;;;11.00;99.90;;;;;;5141088;27;20337;-61
2023/03/27 03:23:37;;;;;;;;;;;10.90;99.90;;;;;;5141156;27;19946;-61
2023/03/27 03:26:03;;;;;;;;;;;10.90;99.90;;;;;;5140708;27;20015;-61
2023/03/27 03:28:29;;;;;;;;;;;10.90;99.90;;;;;;5140834;27;19954;-61
2023/03/27 03:30:57;;;;;;;;;;;10.80;99.90;;;;;;5141002;27;19930;-61
2023/03/27 03:33:24;;;;;;;;;;;10.60;99.90;;;;;;5140632;27;19907;-61
2023/03/27 03:35:50;;;;;;;;;;;10.70;99.90;;;;;;5141037;27;19907;-61
2023/03/27 03:38:25;;;;;;;;;;;10.60;99.90;;;;;;5140573;27;19911;-61
2023/03/27 03:40:52;;;;;;;;;;;10.70;99.90;;;;;;5141081;27;19908;-61
2023/03/27 03:43:18;;;;;;;;;;;10.60;99.90;;;;;;5140287;27;19940;-61
2023/03/27 03:45:44;;;;;;;;;;;10.60;99.90;;;;;;5140486;27;19943;-61
2023/03/27 03:48:10;;;;;;;;;;;10.60;99.90;;;;;;5140299;27;20001;-61
2023/03/27 03:50:35;;;;;;;;;;;10.50;99.90;;;;;;5140532;27;19912;-61
2023/03/27 03:53:01;;;;;;;;;;;10.50;99.90;;;;;;5140517;27;19971;-61
2023/03/27 03:55:27;;;;;;;;;;;10.40;99.90;;;;;;5140333;27;19907;-61
2023/03/27 03:57:52;;;;;;;;;;;10.40;99.90;;;;;;5140277;27;19934;-61
2023/03/27 04:00:18;;;;;;;;;;;10.30;99.90;;;;;;5140199;27;19943;-61
2023/03/27 04:02:44;;;;;;;;;;;10.20;99.90;;;;;;5140237;27;19956;-61
2023/03/27 04:05:09;;;;;;;;;;;10.20;99.90;;;;;;5140126;27;19908;-61
2023/03/27 04:07:35;;;;;;;;;;;10.20;99.90;;;;;;5140233;27;19908;-61
2023/03/27 04:10:02;;;;;;;;;;;10.20;99.90;;;;;;5140116;27;19908;-61
2023/03/27 04:12:28;;;;;;;;;;;10.10;99.90;;;;;;5140021;27;19917;-61
2023/03/27 04:14:54;;;;;;;;;;;10.20;99.90;;;;;;5139942;27;19994;-61
2023/03/27 04:17:20;;;;;;;;;;;10.20;99.90;;;;;;5139752;27;19911;-61
2023/03/27 04:19:49;;;;;;;;;;;10.10;99.90;;;;;;5139605;27;19962;-61
2023/03/27 04:22:17;;;;;;;;;;;10.00;99.90;;;;;;5139770;27;19911;-61
2023/03/27 04:24:49;;;;;;;;;;;10.00;99.90;;;;;;5140023;27;19919;-61
2023/03/27 04:27:15;;;;;;;;;;;9.90;99.90;;;;;;5138679;27;19926;-61
2023/03/27 04:29:42;;;;;;;;;;;9.90;99.90;;;;;;5139869;27;19908;-60
2023/03/27 04:32:10;;;;;;;;;;;9.90;99.90;;;;;;5139693;27;19907;-61
2023/03/27 04:34:41;;;;;;;;;;;9.80;99.90;;;;;;5139734;27;19914;-61
2023/03/27 04:37:07;;;;;;;;;;;9.80;99.90;;;;;;5139471;27;20002;-61
2023/03/27 04:39:38;;;;;;;;;;;9.70;99.90;;;;;;5139977;27;19962;-61
2023/03/27 04:42:04;;;;;;;;;;;9.70;99.90;;;;;;5139431;27;19974;-61
2023/03/27 04:44:30;;;;;;;;;;;9.70;99.90;;;;;;5139836;27;19907;-61
2023/03/27 04:47:00;;;;;;;;;;;9.60;99.90;;;;;;5139275;27;19956;-61
2023/03/27 04:49:26;;;;;;;;;;;9.60;99.90;;;;;;5139774;27;19908;-61
2023/03/27 04:51:51;;;;;;;;;;;9.70;99.90;;;;;;5139288;27;19952;-61
2023/03/27 04:54:17;;;;;;;;;;;9.60;99.90;;;;;;5139455;27;19946;-61
2023/03/27 04:56:44;;;;;;;;;;;9.60;99.90;;;;;;5139002;27;19907;-61
2023/03/27 04:59:10;;;;;;;;;;;9.60;99.90;;;;;;5139176;27;19914;-61
2023/03/27 05:01:35;;;;;;;;;;;9.50;99.90;;;;;;5139531;27;20401;-61
2023/03/27 05:04:01;;;;;;;;;;;9.70;99.90;;;;;;5139115;27;20334;-61
2023/03/27 05:06:27;;;;;;;;;;;9.50;99.90;;;;;;5139267;27;19930;-61
2023/03/27 05:08:53;;;;;;;;;;;9.60;99.90;;;;;;5139003;27;19949;-61
2023/03/27 05:11:19;;;;;;;;;;;9.40;99.90;;;;;;5139432;27;20342;-61
2023/03/27 05:13:44;;;;;;;;;;;9.60;99.90;;;;;;5138866;27;19914;-61
2023/03/27 05:16:10;;;;;;;;;;;9.60;99.90;;;;;;5138947;27;19938;-61
2023/03/27 05:18:37;;;;;;;;;;;9.60;99.90;;;;;;5139289;27;20301;-61
2023/03/27 05:21:03;;;;;;;;;;;9.70;99.90;;;;;;5139034;27;19907;-61
2023/03/27 05:23:28;;;;;;;;;;;9.70;99.90;;;;;;5139026;27;20393;-61
2023/03/27 05:25:57;;;;;;;;;;;9.70;99.90;;;;;;5138705;28;19915;-61
2023/03/27 05:28:22;;;;;;;;;;;9.70;99.90;;;;;;5139117;28;19908;-61
2023/03/27 05:30:48;;;;;;;;;;;9.70;99.90;;;;;;5139129;28;19954;-61
2023/03/27 05:33:15;;;;;;;;;;;9.70;99.90;;;;;;5138843;28;19908;-61
2023/03/27 05:35:41;;;;;;;;;;;9.90;99.90;;;;;;5138895;28;19908;-61
2023/03/27 05:38:07;;;;;;;;;;;9.80;99.90;;;;;;5141466;27;19912;-61
2023/03/27 05:40:33;;;;;;;;;;;9.90;99.90;;;;;;5142932;27;20363;-61
2023/03/27 05:42:59;;;;;;;;;;;9.80;99.90;;;;;;5142644;27;19907;-61
2023/03/27 05:45:25;;;;;;;;;;;9.90;99.90;;;;;;5142949;27;19915;-61
2023/03/27 05:47:55;;;;;;;;;;;9.90;99.90;;;;;;5142649;27;19960;-61
2023/03/27 05:50:27;;;;;;;;;;;9.90;99.90;;;;;;5142922;27;19908;-61
2023/03/27 05:52:57;;;;;;;;;;;9.90;99.90;;;;;;5142861;27;19907;-61
2023/03/27 05:55:23;;;;;;;;;;;10.00;99.90;;;;;;5143121;27;19907;-61
2023/03/27 05:57:50;;;;;;;;;;;10.00;99.90;;;;;;5142534;27;19911;-61
2023/03/27 06:00:16;;;;;;;;;;;10.00;99.90;;;;;;5142604;27;19908;-61
2023/03/27 06:02:43;;;;;;;;;;;10.10;99.90;;;;;;5142436;27;19914;-61
2023/03/27 06:05:14;;;;;;;;;;;10.00;99.90;;;;;;5142275;27;19907;-61
2023/03/27 06:07:40;;;;;;;;;;;10.00;99.90;;;;;;5142160;27;19955;-61
2023/03/27 06:10:07;;;;;;;;;;;10.00;99.90;;;;;;5142443;27;20036;-60
2023/03/27 06:12:35;;;;;;;;;;;10.00;99.90;;;;;;5142511;27;19953;-61
2023/03/27 06:15:01;;;;;;;;;;;10.00;99.90;;;;;;5142414;27;19907;-61
2023/03/27 06:17:27;;;;;;;;;;;10.00;99.90;;;;;;5142116;27;19912;-61
2023/03/27 06:19:52;;;;;;;;;;;10.00;99.90;;;;;;5142520;27;19922;-61
2023/03/27 06:22:18;;;;;;;;;;;10.00;99.90;;;;;;5142317;27;19947;-61
2023/03/27 06:24:44;;;;;;;;;;;9.90;99.90;;;;;;5142266;27;20479;-61
2023/03/27 06:27:09;;;;;;;;;;;10.00;99.90;;;;;;5141787;27;19919;-61
2023/03/27 06:29:36;;;;;;;;;;;10.10;99.90;;;;;;5142242;27;19907;-61
2023/03/27 06:32:03;;;;;;;;;;;10.00;99.90;;;;;;5141829;27;20468;-61
2023/03/27 06:34:28;;;;;;;;;;;10.10;99.90;;;;;;5141698;27;19911;-61
2023/03/27 06:36:54;;;;;;;;;;;10.10;99.90;;;;;;5141795;27;19952;-61
2023/03/27 06:39:20;;;;;;;;;;;10.20;99.90;;;;;;5141979;27;20366;-61
2023/03/27 06:41:46;;;;;;;;;;;10.20;99.90;;;;;;5142032;27;19915;-61
2023/03/27 06:44:11;;;;;;;;;;;10.20;99.90;;;;;;5141708;27;19907;-61
2023/03/27 06:46:37;;;;;;;;;;;10.20;99.90;;;;;;5141892;27;19922;-61
2023/03/27 06:49:02;;;;;;;;;;;10.30;99.90;;;;;;5140995;27;19956;-61
2023/03/27 06:51:28;;;;;;;;;;;10.30;99.90;;;;;;5141624;27;19908;-61
2023/03/27 06:53:54;;;;;;;;;;;10.40;99.90;;;;;;5141555;27;19913;-61
2023/03/27 06:56:20;;;;;;;;;;;10.40;99.90;;;;;;5141990;27;19908;-61
2023/03/27 06:58:45;;;;;;;;;;;10.40;99.90;;;;;;5141258;27;19950;-61
2023/03/27 07:01:11;;;;;;;;;;;10.40;99.90;;;;;;5141155;27;19953;-61
2023/03/27 07:03:37;;;;;;;;;;;10.40;99.90;;;;;;5141507;27;19907;-61
2023/03/27 07:06:03;;;;;;;;;;;10.50;99.90;;;;;;5141497;27;19907;-61
2023/03/27 07:08:29;;;;;;;;;;;10.60;99.90;;;;;;5141174;27;19931;-61
2023/03/27 07:10:55;;;;;;;;;;;10.60;99.90;;;;;;5140988;27;19907;-61
2023/03/27 07:13:20;;;;;;;;;;;10.70;99.90;;;;;;5141200;27;19990;-61
2023/03/27 07:15:46;;;;;;;;;;;10.70;99.90;;;;;;5141369;27;20254;-61
2023/03/27 07:18:14;;;;;;;;;;;10.70;99.90;;;;;;5141213;27;19960;-61
2023/03/27 07:20:39;;;;;;;;;;;10.70;99.90;;;;;;5141197;27;19950;-61
2023/03/27 07:23:05;;;;;;;;;;;10.80;99.90;;;;;;5141403;27;19907;-61
2023/03/27 07:25:35;;;;;;;;;;;10.80;99.90;;;;;;5141207;27;19907;-61
2023/03/27 07:28:06;;;;;;;;;;;10.80;99.90;;;;;;5140866;27;19952;-57
2023/03/27 07:30:32;;;;;;;;;;;10.90;99.90;;;;;;5140725;27;19994;-55
2023/03/27 07:32:57;;;;;;;;;;;11.00;99.90;;;;;;5141092;27;19958;-57
2023/03/27 07:35:26;;;;;;;;;;;11.00;99.90;;;;;;5140925;27;19951;-56
2023/03/27 07:37:52;;;;;;;;;;;11.20;99.90;;;;;;5140741;27;19918;-57
2023/03/27 07:40:21;;;;;;;;;;;11.20;99.90;;;;;;5140647;27;20397;-58
2023/03/27 07:42:48;;;;;;;;;;;11.20;99.90;;;;;;5140370;27;20297;-57
2023/03/27 07:45:15;;;;;;;;;;;11.30;99.90;;;;;;5140740;27;19928;-57
2023/03/27 07:47:42;;;;;;;;;;;11.30;99.90;;;;;;5140666;27;19930;-57
2023/03/27 07:50:10;;;;;;;;;;;11.50;99.90;;;;;;5139982;27;19911;-56
2023/03/27 07:52:35;;;;;;;;;;;11.60;99.90;;;;;;5140510;27;19998;-55
2023/03/27 07:55:02;;;;;;;;;;;11.80;99.90;;;;;;5140203;27;19942;-57
2023/03/27 07:57:28;;;;;;;;;;;11.80;99.90;;;;;;5140468;27;19911;-57
2023/03/27 07:59:56;;;;;;;;;;;11.80;99.90;;;;;;5140471;27;19943;-58
2023/03/27 08:02:22;;;;;;;;;;;11.90;99.90;;;;;;5139335;27;19907;-57
2023/03/27 08:04:48;;;;;;;;;;;11.90;99.90;;;;;;5121666;27;19915;-57
2023/03/27 08:07:13;;;;;;;;;;;12.00;99.90;;;;;;5140164;27;19907;-55
2023/03/27 08:09:39;;;;;;;;;;;12.20;99.90;;;;;;5139995;27;19908;-57
2023/03/27 08:12:06;;;;;;;;;;;12.20;99.90;;;;;;5139808;27;20340;-56
2023/03/27 08:14:32;;;;;;;;;;;12.30;99.90;;;;;;5140373;27;19986;-56
2023/03/27 08:16:58;;;;;;;;;;;12.40;99.90;;;;;;5139996;27;20473;-57
2023/03/27 08:19:24;;;;;;;;;;;12.40;99.90;;;;;;5139649;27;19908;-57
2023/03/27 08:21:49;;;;;;;;;;;12.50;99.90;;;;;;5139811;27;19931;-57
2023/03/27 08:24:15;;;;;;;;;;;12.50;99.90;;;;;;5139743;27;19907;-57
2023/03/27 08:26:41;;;;;;;;;;;12.50;99.90;;;;;;5139475;27;19919;-57
2023/03/27 08:29:07;;;;;;;;;;;12.70;99.90;;;;;;5139599;27;19908;-56
2023/03/27 08:31:33;;;;;;;;;;;12.70;99.90;;;;;;5139546;27;19912;-57
2023/03/27 08:34:00;;;;;;;;;;;12.80;99.90;;;;;;5139429;27;19907;-57
2023/03/27 08:36:26;;;;;;;;;;;12.90;99.90;;;;;;5139558;27;19907;-58
2023/03/27 08:38:53;;;;;;;;;;;13.00;99.90;;;;;;5139141;27;20445;-57
2023/03/27 08:41:33;;;;;;;;;;;13.00;99.90;;;;;;5139661;27;20002;-57
2023/03/27 08:44:00;;;;;;;;;;;13.00;99.90;;;;;;5139335;27;19975;-57
2023/03/27 08:46:27;;;;;;;;;;;13.00;99.90;;;;;;5139574;27;19907;-57
2023/03/27 08:49:10;;;;;;;;;;;13.10;99.90;;;;;;5139198;27;19908;-54
2023/03/27 08:51:51;;;;;;;;;;;13.00;99.90;;;;;;5139155;27;20003;-57
2023/03/27 08:54:17;;;;;;;;;;;13.00;99.90;;;;;;5139202;27;19907;-57
2023/03/27 08:56:44;;;;;;;;;;;12.90;99.90;;;;;;5139164;27;19907;-57
2023/03/27 08:59:13;;;;;;;;;;;12.80;99.90;;;;;;5139102;27;19946;-57
2023/03/27 09:01:45;;;;;;;;;;;12.70;99.90;;;;;;5139128;27;19907;-57
2023/03/27 09:04:20;;;;;;;;;;;12.80;99.90;;;;;;5139342;27;19907;-57
2023/03/27 09:07:04;;;;;;;;;;;12.80;99.90;;;;;;5139247;27;20304;-58
2023/03/27 09:09:51;;;;;;;;;;;12.70;99.90;;;;;;5139429;27;20411;-57
2023/03/27 09:12:23;;;;;;;;;;;12.70;99.90;;;;;;5138669;27;19990;-56
2023/03/27 09:14:54;;;;;;;;;;;12.80;99.90;;;;;;5138797;27;20389;-57
2023/03/27 09:17:25;;;;;;;;;;;12.60;99.90;;;;;;5138782;27;20294;-56
2023/03/27 09:19:50;;;;;;;;;;;12.40;99.90;;;;;;5139035;27;19907;-56
2023/03/27 09:22:19;;;;;;;;;;;12.20;99.90;;;;;;5139124;27;19907;-57
2023/03/27 09:24:46;;;;;;;;;;;12.20;99.90;;;;;;5139250;28;19915;-57
2023/03/27 09:27:18;;;;;;;;;;;12.20;99.90;;;;;;5138603;28;20432;-57
2023/03/27 09:29:44;;;;;;;;;;;12.10;99.90;;;;;;5138861;28;19912;-57
2023/03/27 09:32:14;;;;;;;;;;;12.20;99.90;;;;;;5139057;28;19914;-57
2023/03/27 09:34:40;;;;;;;;;;;12.30;99.90;;;;;;5138871;28;19907;-57
2023/03/27 09:37:15;;;;;;;;;;;12.40;99.90;;;;;;5138640;28;19964;-58
2023/03/27 09:39:43;;;;;;;;;;;12.30;99.90;;;;;;5138814;28;19907;-57
2023/03/27 09:42:27;;;;;;;;;;;12.30;99.90;;;;;;5138973;28;19919;-57
2023/03/27 09:44:58;;;;;;;;;;;12.50;99.90;;;;;;5138657;28;19915;-57
2023/03/27 09:47:27;;;;;;;;;;;12.70;99.90;;;;;;5139145;28;19998;-57
2023/03/27 09:49:55;;;;;;;;;;;12.90;99.90;;;;;;5138870;28;19982;-55
2023/03/27 09:52:37;;;;;;;;;;;13.10;99.90;;;;;;5138425;28;19944;-57
2023/03/27 09:55:19;;;;;;;;;;;13.00;99.90;;;;;;5138513;28;20366;-57
2023/03/27 09:57:45;;;;;;;;;;;13.10;99.90;;;;;;5139361;28;19911;-56
2023/03/27 10:00:32;;;;;;;;;;;13.70;99.90;;;;;;5138575;28;20002;-53
2023/03/27 10:03:04;;;;;;;;;;;14.50;99.90;;;;;;5138415;28;20377;-57
2023/03/27 10:05:31;;;;;;;;;;;14.50;99.90;;;;;;5138537;28;20286;-56
2023/03/27 10:07:57;;;;;;;;;;;14.10;99.90;;;;;;5138438;28;19907;-57
2023/03/27 10:10:25;;;;;;;;;;;13.90;99.90;;;;;;5138336;28;19908;-56
2023/03/27 10:12:55;;;;;;;;;;;13.60;99.90;;;;;;5138295;28;20389;-56
2023/03/27 10:15:32;;;;;;;;;;;13.30;99.90;;;;;;5138546;28;19986;-57
2023/03/27 10:17:59;;;;;;;;;;;13.30;99.90;;;;;;5138480;28;19969;-57
2023/03/27 10:20:25;;;;;;;;;;;14.80;99.90;;;;;;5120130;28;19912;-56
2023/03/27 10:22:52;;;;;;;;;;;15.70;99.90;;;;;;5138270;28;19907;-57
2023/03/27 10:25:19;;;;;;;;;;;16.30;99.90;;;;;;5141264;27;20382;-54
2023/03/27 10:27:46;;;;;;;;;;;16.50;99.90;;;;;;5141950;27;19912;-57
2023/03/27 10:30:23;;;;;;;;;;;16.80;99.90;;;;;;5141920;27;19907;-57
2023/03/27 10:32:50;;;;;;;;;;;17.10;99.90;;;;;;5142148;27;20351;-57
2023/03/27 10:35:24;;;;;;;;;;;17.50;99.90;;;;;;5142227;27;19907;-57
2023/03/27 10:37:51;;;;;;;;;;;17.70;99.90;;;;;;5141552;27;19911;-56
2023/03/27 10:40:18;;;;;;;;;;;17.60;99.90;;;;;;5142048;27;19911;-57
2023/03/27 10:42:45;;;;;;;;;;;18.00;99.90;;;;;;5142009;27;19951;-57
2023/03/27 10:45:15;;;;;;;;;;;18.60;99.90;;;;;;5141937;27;19914;-56
2023/03/27 10:47:44;;;;;;;;;;;19.00;99.90;;;;;;5141585;27;20479;-57
2023/03/27 10:50:21;;;;;;;;;;;18.90;99.90;;;;;;5141711;27;19908;-57
2023/03/27 10:53:04;;;;;;;;;;;18.20;99.90;;;;;;5141370;27;19955;-56
2023/03/27 10:55:33;;;;;;;;;;;17.40;99.90;;;;;;5141637;27;19914;-58
2023/03/27 10:58:04;;;;;;;;;;;18.40;99.90;;;;;;5141185;27;20393;-57
2023/03/27 11:00:47;;;;;;;;;;;20.30;99.90;;;;;;5141119;27;19914;-58
2023/03/27 11:03:18;;;;;;;;;;;19.60;95.30;;;;;;5141305;27;19907;-57
2023/03/27 11:05:45;;;;;;;;;;;19.10;94.80;;;;;;5141667;27;19999;-58
2023/03/27 11:08:31;;;;;;;;;;;18.70;98.60;;;;;;5141465;27;19970;-58
2023/03/27 11:11:01;;;;;;;;;;;18.00;99.60;;;;;;5140628;27;20388;-57
2023/03/27 11:13:36;;;;;;;;;;;18.60;99.90;;;;;;5141368;27;19907;-57
2023/03/27 11:16:02;;;;;;;;;;;19.00;99.90;;;;;;5141538;27;19907;-56
2023/03/27 11:18:47;;;;;;;;;;;19.20;96.30;;;;;;5141071;27;19921;-57
2023/03/27 11:21:28;;;;;;;;;;;19.30;94.90;;;;;;5141215;27;19908;-57
2023/03/27 11:23:53;;;;;;;;;;;19.10;92.80;;;;;;5141059;27;19918;-57
2023/03/27 11:26:22;;;;;;;;;;;18.00;98.60;;;;;;5140824;27;19919;-57
2023/03/27 11:28:51;;;;;;;;;;;18.30;99.90;;;;;;5141129;27;19914;-57
2023/03/27 11:31:36;;;;;;;;;;;18.70;95.80;;;;;;5140576;27;19961;-57
2023/03/27 11:34:14;;;;;;;;;;;18.40;98.30;;;;;;5140990;27;20382;-57
2023/03/27 11:36:53;;;;;;;;;;;19.10;94.60;;;;;;5140801;27;19929;-58
2023/03/27 11:39:37;;;;;;;;;;;19.40;92.30;;;;;;5140850;27;19964;-58
2023/03/27 11:42:12;;;;;;;;;;;19.00;94.70;;;;;;5140824;27;19907;-57
2023/03/27 11:44:38;;;;;;;;;;;18.70;91.70;;;;;;5140806;27;19937;-57
2023/03/27 11:47:04;;;;;;;;;;;18.60;98.50;;;;;;5140526;27;20300;-58
2023/03/27 11:49:49;;;;;;;;;;;19.50;92.90;;;;;;5140568;27;19986;-57
2023/03/27 11:52:18;;;;;;;;;;;19.50;91.50;;;;;;5140216;27;20259;-58
2023/03/27 11:55:06;;;;;;;;;;;19.80;84.30;;;;;;5140171;27;19937;-58
2023/03/27 11:57:37;;;;;;;;;;;19.60;92.20;;;;;;5140665;27;19919;-54
2023/03/27 12:00:04;;;;;;;;;;;20.10;90.20;;;;;;5140217;27;19915;-58
2023/03/27 12:02:33;;;;;;;;;;;19.90;92.90;;;;;;5139859;27;19960;-57
2023/03/27 12:04:58;;;;;;;;;;;19.60;82.30;;;;;;5140206;27;19915;-57
2023/03/27 12:07:43;;;;;;;;;;;19.40;89.60;;;;;;5140322;27;20044;-57
2023/03/27 12:10:29;;;;;;;;;;;19.50;90.20;;;;;;5140061;27;20366;-58
2023/03/27 12:12:54;;;;;;;;;;;18.90;93.80;;;;;;5139961;27;19908;-58
2023/03/27 12:15:29;;;;;;;;;;;19.30;91.10;;;;;;5140022;27;19942;-57
2023/03/27 12:18:14;;;;;;;;;;;18.40;91.80;;;;;;5139811;27;19964;-58
2023/03/27 12:20:40;;;;;;;;;;;18.60;92.80;;;;;;5139717;27;19930;-57
2023/03/27 12:23:15;;;;;;;;;;;18.40;96.10;;;;;;5139955;27;19908;-57
2023/03/27 12:25:40;;;;;;;;;;;18.20;96.40;;;;;;5139708;27;19955;-58
2023/03/27 12:28:25;;;;;;;;;;;19.00;96.70;;;;;;5139631;27;20374;-57
2023/03/27 12:31:10;;;;;;;;;;;19.40;95.80;;;;;;5140038;27;19960;-56
2023/03/27 12:33:42;;;;;;;;;;;19.00;90.00;;;;;;5139539;27;19990;-58
2023/03/27 12:36:11;;;;;;;;;;;18.80;92.80;;;;;;5139778;27;19912;-57
2023/03/27 12:38:41;;;;;;;;;;;18.70;93.30;;;;;;5139685;27;19919;-58
2023/03/27 12:41:22;;;;;;;;;;;19.00;94.00;;;;;;5139741;27;19961;-57
2023/03/27 12:43:52;;;;;;;;;;;18.80;94.10;;;;;;5139447;27;19957;-57
2023/03/27 12:46:29;;;;;;;;;;;18.60;94.40;;;;;;5139009;27;19914;-58
2023/03/27 12:49:07;;;;;;;;;;;18.50;96.30;;;;;;5139534;27;19929;-58
2023/03/27 12:51:38;;;;;;;;;;;19.00;97.10;;;;;;5139769;27;20370;-58
2023/03/27 12:54:23;;;;;;;;;;;19.10;90.50;;;;;;5139316;27;19907;-58
2023/03/27 12:57:09;;;;;;;;;;;19.50;94.50;;;;;;5139617;27;19908;-57
2023/03/27 12:59:38;;;;;;;;;;;20.10;84.10;;;;;;5138268;27;19935;-58
2023/03/27 13:02:03;;;;;;;;;;;19.30;91.30;;;;;;5139201;27;19947;-58
2023/03/27 13:04:32;;;;;;;;;;;20.20;92.40;;;;;;5139117;27;19929;-58
2023/03/27 13:07:04;;;;;;;;;;;20.80;90.70;;;;;;5139094;27;20354;-58
2023/03/27 13:09:30;;;;;;;;;;;20.90;82.60;;;;;;5138889;27;19916;-57
2023/03/27 13:11:57;;;;;;;;;;;20.10;90.40;;;;;;5139184;27;19907;-58
2023/03/27 13:14:39;;;;;;;;;;;21.00;85.60;;;;;;5138986;27;20421;-59
2023/03/27 13:17:20;;;;;;;;;;;21.30;82.40;;;;;;5139233;27;19907;-58
2023/03/27 13:19:49;;;;;;;;;;;21.90;78.50;;;;;;5138873;27;19929;-58
2023/03/27 13:22:17;;;;;;;;;;;21.20;75.50;;;;;;5138784;27;20363;-58
2023/03/27 13:24:49;;;;;;;;;;;21.00;89.70;;;;;;5138856;27;20323;-59
2023/03/27 13:27:20;;;;;;;;;;;19.90;80.90;;;;;;5138759;28;20410;-58
2023/03/27 13:29:50;;;;;;;;;;;19.90;77.50;;;;;;5138730;28;20316;-58
2023/03/27 13:32:36;;;;;;;;;;;19.60;89.10;;;;;;5138950;28;19915;-59
2023/03/27 13:35:24;;;;;;;;;;;20.50;82.30;;;;;;5138935;28;20018;-58
2023/03/27 13:37:50;;;;;;;;;;;19.50;83.70;;;;;;5138819;28;19912;-57
2023/03/27 13:40:22;;;;;;;;;;;19.80;90.20;;;;;;5138786;28;19908;-58
2023/03/27 13:42:51;;;;;;;;;;;19.30;87.20;;;;;;5138691;28;19982;-57
2023/03/27 13:45:37;;;;;;;;;;;18.90;90.90;;;;;;5138846;28;19943;-57
2023/03/27 13:48:06;;;;;;;;;;;18.90;92.30;;;;;;5138603;28;20409;-58
2023/03/27 13:50:41;;;;;;;;;;;19.30;87.90;;;;;;5138695;28;19914;-57
2023/03/27 13:53:19;;;;;;;;;;;18.70;90.80;;;;;;5138766;28;19914;-57
2023/03/27 13:55:47;;;;;;;;;;;18.80;91.10;;;;;;5138684;28;19908;-58
2023/03/27 13:58:13;;;;;;;;;;;18.40;92.20;;;;;;5138481;27;19911;-58
2023/03/27 14:00:46;;;;;;;;;;;18.30;94.80;;;;;;5142272;27;19999;-58
2023/03/27 14:03:18;;;;;;;;;;;18.30;95.20;;;;;;5142534;27;20364;-57
2023/03/27 14:05:57;;;;;;;;;;;18.90;94.50;;;;;;5142531;27;19914;-58
2023/03/27 14:08:31;;;;;;;;;;;18.80;87.60;;;;;;5142440;27;19907;-57
2023/03/27 14:11:13;;;;;;;;;;;18.90;93.90;;;;;;5142648;27;19930;-58
2023/03/27 14:13:54;;;;;;;;;;;20.10;91.60;;;;;;5142147;27;20266;-57
2023/03/27 14:16:38;;;;;;;;;;;19.40;90.10;;;;;;5142446;27;19915;-58
2023/03/27 14:19:07;;;;;;;;;;;19.40;89.90;;;;;;5142171;27;20319;-57
2023/03/27 14:22:08;;;;;;;;;;;18.80;90.40;;;;;;5142219;27;19928;-58
2023/03/27 14:24:37;;;;;;;;;;;18.70;91.00;;;;;;5058675;28;19913;-57
2023/03/27 14:27:04;;;;;;;;;;;18.80;93.80;;;;;;5126295;27;19920;-58
2023/03/27 14:29:31;;;;;;;;;;;18.70;91.10;;;;;;5142091;27;19907;-57
2023/03/27 14:32:04;;;;;;;;;;;18.60;95.30;;;;;;5142202;27;19914;-57
2023/03/27 14:34:33;;;;;;;;;;;18.20;91.40;;;;;;5142139;27;19907;-57